Time;durP1;ratioP1;P1;durP2;ratioP2;P2;SDS_P1;SDS_P2;PMS_P1;PMS_P2;Temp;Humidity;BMP_temperature;BMP_pressure;BME280_temperature;BME280_humidity;BME280_pressure;Samples;Min_cycle;Max_cycle;Signal;HPM_P1;HPM_P2
2022/08/14 00:01:02;;;;;;;3.20;1.20;;;;;;;26.41;46.74;100614.88;7385246;19;20010;-63
2022/08/14 00:03:38;;;;;;;8.73;2.40;;;;;;;26.38;47.05;100612.66;7379862;19;20074;-64
2022/08/14 00:06:08;;;;;;;7.60;2.22;;;;;;;26.34;47.95;100595.38;7382390;19;20006;-63
2022/08/14 00:08:54;;;;;;;4.00;1.70;;;;;;;26.30;48.32;100597.81;7384490;19;20090;-65
2022/08/14 00:11:26;;;;;;;8.70;2.33;;;;;;;26.27;48.57;100597.50;7384966;19;20007;-64
2022/08/14 00:14:00;;;;;;;5.93;2.45;;;;;;;26.24;49.24;100596.16;7383563;19;20046;-64
2022/08/14 00:16:28;;;;;;;5.03;2.30;;;;;;;26.21;49.53;100593.94;7383055;19;20039;-65
2022/08/14 00:19:12;;;;;;;6.35;2.40;;;;;;;26.17;51.25;100592.81;7379218;19;20763;-63
2022/08/14 00:21:49;;;;;;;5.90;1.90;;;;;;;26.13;51.34;100582.81;7383410;19;20006;-63
2022/08/14 00:24:18;;;;;;;4.55;1.83;;;;;;;26.10;51.30;100591.47;7380844;19;20053;-63
2022/08/14 00:26:55;;;;;;;5.97;2.55;;;;;;;26.03;52.45;100580.88;7385457;19;20032;-64
2022/08/14 00:29:22;;;;;;;6.15;2.30;;;;;;;26.03;52.31;100578.19;7381950;19;20014;-63
2022/08/14 00:31:51;;;;;;;4.10;1.80;;;;;;;26.00;52.78;100572.50;7385122;19;20048;-66
2022/08/14 00:34:23;;;;;;;6.18;2.05;;;;;;;25.95;53.22;100576.81;7380416;19;20013;-66
2022/08/14 00:37:04;;;;;;;9.15;2.33;;;;;;;25.91;52.96;100574.88;7383191;19;20483;-67
2022/08/14 00:39:33;;;;;;;5.82;1.88;;;;;;;25.86;53.40;100575.66;7380860;19;20036;-67
2022/08/14 00:42:00;;;;;;;5.20;2.03;;;;;;;25.84;53.32;100569.72;7381379;19;20032;-67
2022/08/14 00:44:29;;;;;;;6.13;1.60;;;;;;;25.82;53.39;100579.94;7378844;19;20019;-66
2022/08/14 00:47:04;;;;;;;4.03;1.77;;;;;;;25.79;53.19;100566.16;7383500;19;20407;-67
2022/08/14 00:49:36;;;;;;;8.05;1.98;;;;;;;25.76;53.50;100569.38;7379280;19;20013;-66
2022/08/14 00:52:12;;;;;;;5.05;1.55;;;;;;;25.71;53.97;100564.75;7381029;19;20550;-68
2022/08/14 00:54:45;;;;;;;3.88;1.58;;;;;;;25.67;53.52;100555.56;7381288;19;20365;-66
2022/08/14 00:57:13;;;;;;;2.78;1.60;;;;;;;25.66;54.10;100564.72;7384413;19;20006;-67
2022/08/14 00:59:40;;;;;;;2.78;1.50;;;;;;;25.62;53.66;100557.41;7384656;19;20006;-67
2022/08/14 01:02:08;;;;;;;4.68;1.63;;;;;;;25.59;53.76;100556.06;7383606;19;20045;-68
2022/08/14 01:04:38;;;;;;;5.30;1.65;;;;;;;25.58;53.77;100556.31;7377831;19;20021;-66
2022/08/14 01:07:21;;;;;;;4.90;1.92;;;;;;;25.55;54.29;100546.84;7382838;19;20010;-66
2022/08/14 01:09:51;;;;;;;5.20;1.40;;;;;;;25.54;54.62;100553.28;7384046;19;20495;-66
2022/08/14 01:12:20;;;;;;;2.30;1.70;;;;;;;25.52;54.23;100550.03;7384386;19;20327;-67
2022/08/14 01:14:59;;;;;;;5.43;1.88;;;;;;;25.51;54.23;100551.91;7384717;19;20011;-66
2022/08/14 01:23:09;;;;;;;2.42;1.60;;;;;;;25.46;54.86;100542.97;7383741;19;20046;-66
2022/08/14 01:25:47;;;;;;;3.67;1.80;;;;;;;25.40;56.31;100549.38;7381821;19;20495;-66
2022/08/14 01:28:14;;;;;;;2.45;1.75;;;;;;;25.37;55.13;100542.66;7385856;19;20033;-66
2022/08/14 01:31:04;;;;;;;6.65;2.10;;;;;;;25.37;55.41;100537.25;7381123;19;20262;-66
2022/08/14 01:33:32;;;;;;;4.38;1.70;;;;;;;25.36;55.48;100534.81;7382352;19;20018;-68
2022/08/14 01:36:19;;;;;;;3.70;1.45;;;;;;;25.36;55.77;100534.81;7383967;19;20011;-68
2022/08/14 01:38:50;;;;;;;3.65;1.33;;;;;;;25.35;55.71;100535.88;7379885;19;20018;-67
2022/08/14 01:41:19;;;;;;;3.92;1.25;;;;;;;25.34;56.06;100526.19;7382541;19;20023;-67
2022/08/14 01:44:02;;;;;;;4.25;1.27;;;;;;;25.32;54.35;100531.00;7383249;19;20007;-68
2022/08/14 01:46:33;;;;;;;7.75;1.88;;;;;;;25.30;54.42;100527.75;7384707;19;20392;-68
2022/08/14 01:49:05;;;;;;;;;;;;;;;25.28;54.73;100529.91;7380530;19;20014;-66
2022/08/14 01:51:42;;;;;;;3.15;1.40;;;;;;;25.22;53.90;100514.75;7382889;19;19914;-66
2022/08/14 01:54:22;;;;;;;3.40;1.40;;;;;;;25.16;54.38;100516.59;7383985;19;20014;-67
2022/08/14 01:57:10;;;;;;;4.38;1.80;;;;;;;25.11;53.92;100514.69;7381483;19;20074;-66
2022/08/14 01:59:39;;;;;;;3.83;1.60;;;;;;;25.10;54.13;100517.63;7380602;19;20018;-66
2022/08/14 02:02:13;;;;;;;5.10;1.52;;;;;;;25.07;53.91;100518.16;7383622;19;20014;-66
2022/08/14 02:04:46;;;;;;;3.42;1.17;;;;;;;25.06;53.99;100511.13;7376938;19;20010;-66
2022/08/14 02:07:23;;;;;;;7.32;1.77;;;;;;;25.02;53.74;100496.56;7378119;19;20530;-65
2022/08/14 02:10:12;;;;;;;2.03;1.35;;;;;;;24.94;54.03;100495.13;7381132;19;20082;-65
2022/08/14 02:12:45;;;;;;;4.45;1.55;;;;;;;24.87;54.20;100488.31;7382405;19;20267;-66
2022/08/14 02:15:20;;;;;;;3.38;1.38;;;;;;;24.81;54.75;100489.31;7381520;19;20006;-67
2022/08/14 02:17:49;;;;;;;5.05;1.38;;;;;;;24.74;55.25;100483.34;7383707;19;20026;-65
2022/08/14 02:20:17;;;;;;;3.90;2.13;;;;;;;24.66;54.64;100481.91;7379300;19;20037;-64
2022/08/14 02:22:52;;;;;;;2.92;1.70;;;;;;;24.58;54.74;100485.06;7382955;19;20033;-64
2022/08/14 02:25:21;;;;;;;5.28;2.08;;;;;;;24.55;55.20;100477.50;7380056;19;20550;-64
2022/08/14 02:27:48;;;;;;;5.10;1.98;;;;;;;24.49;55.19;100468.53;7388091;19;20010;-62
2022/08/14 02:30:35;;;;;;;4.22;2.10;;;;;;;24.44;55.58;100464.97;7386056;19;20340;-63
2022/08/14 02:33:06;;;;;;;3.70;2.03;;;;;;;24.41;56.58;100462.81;7390973;19;20481;-63
2022/08/14 02:35:33;;;;;;;4.45;2.20;;;;;;;24.38;56.89;100466.81;7387725;19;20031;-63
2022/08/14 02:38:08;;;;;;;5.53;2.05;;;;;;;24.36;56.67;100460.06;7388111;19;20014;-64
2022/08/14 02:40:38;;;;;;;4.63;2.00;;;;;;;24.34;56.95;100456.81;7388214;19;20014;-63
2022/08/14 02:43:06;;;;;;;4.32;1.80;;;;;;;24.32;56.24;100459.78;7388595;19;20037;-66
2022/08/14 02:45:33;;;;;;;3.60;2.30;;;;;;;24.31;56.36;100457.31;7386363;19;20022;-64
2022/08/14 02:48:11;;;;;;;3.63;2.15;;;;;;;24.26;56.40;100461.59;7389993;19;20033;-65
2022/08/14 02:50:59;;;;;;;4.22;2.10;;;;;;;24.22;57.10;100462.34;7386325;19;20519;-64
2022/08/14 02:53:30;;;;;;;6.20;2.40;;;;;;;24.19;56.62;100463.66;7389864;19;20362;-64
2022/08/14 02:56:00;;;;;;;3.03;2.20;;;;;;;24.14;57.08;100460.03;7388338;19;20031;-64
2022/08/14 02:58:31;;;;;;;3.70;2.20;;;;;;;24.11;56.90;100464.06;7390489;19;20019;-64
2022/08/14 03:00:59;;;;;;;5.82;2.30;;;;;;;24.11;56.67;100465.94;7386931;19;20392;-66
2022/08/14 03:03:27;;;;;;;6.45;2.15;;;;;;;24.08;56.48;100459.16;7388819;19;20018;-67
2022/08/14 03:05:57;;;;;;;6.38;2.53;;;;;;;24.08;56.70;100458.34;7384805;19;20367;-66
2022/08/14 03:08:30;;;;;;;6.57;2.35;;;;;;;24.05;56.74;100457.00;7390356;19;20190;-66
2022/08/14 03:11:05;;;;;;;3.30;2.20;;;;;;;24.04;57.06;100465.31;7388539;19;20011;-68
2022/08/14 03:13:36;;;;;;;4.32;2.72;;;;;;;24.04;56.88;100465.31;7389596;19;20371;-67
2022/08/14 03:16:05;;;;;;;3.78;2.47;;;;;;;24.00;56.90;100466.88;7388017;19;20014;-66
2022/08/14 03:18:47;;;;;;;3.13;2.38;;;;;;;23.96;56.88;100463.06;7387744;19;20011;-66
2022/08/14 03:21:19;;;;;;;;;;;;;;;23.93;57.51;100458.16;7389367;19;20316;-67
2022/08/14 03:23:48;;;;;;;6.85;2.50;;;;;;;23.88;57.39;100457.03;7388602;19;19929;-67
2022/08/14 03:26:19;;;;;;;4.57;2.65;;;;;;;23.86;57.69;100467.25;7389158;19;20427;-66
2022/08/14 03:28:57;;;;;;;6.88;2.42;;;;;;;23.84;58.08;100461.31;7386189;19;20015;-65
2022/08/14 03:31:28;;;;;;;4.07;2.38;;;;;;;23.82;58.02;100455.34;7388636;19;20046;-66
2022/08/14 03:33:56;;;;;;;3.80;2.70;;;;;;;23.81;58.23;100463.69;7383735;19;20086;-67
2022/08/14 03:36:27;;;;;;;4.80;2.70;;;;;;;23.79;58.48;100452.34;7386979;19;20010;-70
2022/08/14 03:39:14;;;;;;;5.00;2.63;;;;;;;23.77;58.72;100449.91;7386916;19;20014;-65
2022/08/14 03:41:51;;;;;;;5.00;2.47;;;;;;;23.75;59.18;100451.22;7389883;19;20544;-65
2022/08/14 03:44:18;;;;;;;6.82;2.67;;;;;;;23.73;58.99;100451.47;7384810;19;20509;-65
2022/08/14 03:47:05;;;;;;;7.30;2.72;;;;;;;23.74;59.26;100453.09;7387669;19;20022;-65
2022/08/14 03:49:34;;;;;;;5.63;2.53;;;;;;;23.72;59.05;100441.78;7383276;19;20007;-65
2022/08/14 03:52:08;;;;;;;4.38;2.60;;;;;;;23.72;58.79;100438.31;7387896;19;20026;-65
2022/08/14 03:54:56;;;;;;;7.57;2.47;;;;;;;23.72;59.03;100438.31;7360392;19;20022;-65
2022/08/14 03:57:23;;;;;;;4.20;2.22;;;;;;;23.72;58.76;100443.69;7378850;19;20018;-65
2022/08/14 03:59:50;;;;;;;4.97;2.33;;;;;;;23.70;58.68;100441.22;7386522;19;20022;-65
2022/08/14 04:02:17;;;;;;;4.80;2.38;;;;;;;23.68;58.44;100437.16;7385342;19;20328;-65
2022/08/14 04:05:08;;;;;;;3.53;2.50;;;;;;;23.65;58.71;100432.28;7381637;19;20042;-67
2022/08/14 04:07:42;;;;;;;3.22;2.20;;;;;;;23.64;59.38;100441.41;7386799;19;20014;-66
2022/08/14 04:10:29;;;;;;;5.05;2.40;;;;;;;23.63;58.95;100431.72;7384323;19;20454;-67
2022/08/14 04:13:00;;;;;;;4.43;2.28;;;;;;;23.61;58.90;100429.28;7383828;19;20026;-67
2022/08/14 04:15:30;;;;;;;3.13;2.35;;;;;;;23.59;58.90;100428.72;7384730;19;20340;-67
2022/08/14 04:18:18;;;;;;;5.13;2.20;;;;;;;23.57;59.02;100424.66;7385059;19;20600;-67
2022/08/14 04:20:45;;;;;;;4.00;2.33;;;;;;;23.54;59.32;100412.53;7383178;19;20049;-67
2022/08/14 04:23:22;;;;;;;4.07;2.25;;;;;;;23.52;58.82;100411.16;7385927;19;20011;-66
2022/08/14 04:26:00;;;;;;;3.55;2.30;;;;;;;23.50;59.84;100408.72;7384215;19;20010;-67
2022/08/14 04:28:27;;;;;;;5.97;2.83;;;;;;;23.48;59.64;100410.00;7387241;19;20029;-66
2022/08/14 04:31:18;;;;;;;5.20;2.05;;;;;;;23.42;59.69;100404.53;7384222;19;20006;-67
2022/08/14 04:34:05;;;;;;;4.22;2.47;;;;;;;23.37;59.46;100393.72;7381676;19;20034;-67
2022/08/14 04:43:34;;;;;;;3.90;2.53;;;;;;;23.37;59.78;100388.34;7387039;19;20410;-65
2022/08/14 04:45:19;;;;;;;3.97;2.10;;;;;;;23.32;59.69;100382.91;7384441;19;20014;-68
2022/08/14 04:50:41;;;;;;;3.33;1.73;;;;;;;23.31;59.28;100392.06;7381301;19;20078;-67
2022/08/14 04:53:13;;;;;;;3.97;2.17;;;;;;;23.31;59.56;100384.00;7385211;19;20017;-67
2022/08/14 04:55:43;;;;;;;6.88;2.28;;;;;;;23.32;59.34;100380.22;7383361;19;20012;-67
2022/08/14 04:58:21;;;;;;;4.00;2.08;;;;;;;23.32;59.26;100385.59;7385255;19;20427;-67
2022/08/14 05:01:04;;;;;;;4.80;1.83;;;;;;;23.31;59.27;100380.50;7386192;19;20493;-66
2022/08/14 05:03:45;;;;;;;4.55;2.20;;;;;;;23.30;59.31;100389.59;7384323;19;20080;-68
2022/08/14 05:06:12;;;;;;;16.98;3.83;;;;;;;23.29;58.75;100386.09;7381826;19;20018;-66
2022/08/14 05:08:59;;;;;;;4.20;2.13;;;;;;;23.29;58.54;100382.59;7385038;19;20086;-67
2022/08/14 05:11:27;;;;;;;3.85;2.00;;;;;;;23.27;58.84;100380.16;7385559;19;20170;-66
2022/08/14 05:13:55;;;;;;;2.38;1.88;;;;;;;23.25;58.84;100370.72;7385958;19;20027;-67
2022/08/14 05:16:43;;;;;;;5.05;1.80;;;;;;;23.23;59.09;100378.22;7383880;19;20371;-66
2022/08/14 05:19:14;;;;;;;4.07;2.05;;;;;;;23.20;58.84;100382.22;7380392;19;20041;-66
2022/08/14 05:21:58;;;;;;;3.42;1.90;;;;;;;23.21;59.01;100380.34;7384687;19;20014;-68
2022/08/14 05:24:49;;;;;;;3.05;1.63;;;;;;;23.20;59.00;100379.53;7384314;19;20014;-66
2022/08/14 05:27:18;;;;;;;;;;;;;;;23.21;58.66;100378.44;7383331;19;20322;-67
2022/08/14 05:29:50;;;;;;;5.17;1.90;;;;;;;23.18;58.47;100383.50;7385410;19;19941;-66
2022/08/14 05:32:17;;;;;;;3.88;2.17;;;;;;;23.18;58.16;100384.31;7383447;19;20380;-66
2022/08/14 05:34:45;;;;;;;7.13;2.22;;;;;;;23.17;58.00;100381.88;7379305;19;20015;-66
2022/08/14 05:37:13;;;;;;;6.75;2.83;;;;;;;23.16;58.50;100391.78;7383437;19;20025;-66
2022/08/14 05:39:41;;;;;;;4.03;2.38;;;;;;;23.15;58.37;100392.06;7384973;19;20025;-66
2022/08/14 05:42:09;;;;;;;4.40;2.75;;;;;;;23.17;58.43;100376.50;7383747;19;20014;-66
2022/08/14 05:44:55;;;;;;;2.85;2.05;;;;;;;23.20;58.74;100374.16;7383412;19;20015;-67
2022/08/14 05:47:23;;;;;;;5.57;2.50;;;;;;;23.23;58.52;100388.94;7384384;19;20022;-66
2022/08/14 05:49:57;;;;;;;4.20;2.50;;;;;;;23.23;57.96;100379.03;7378163;19;20014;-67
2022/08/14 05:52:23;;;;;;;4.35;2.13;;;;;;;23.26;57.72;100380.41;7382628;19;20014;-66
2022/08/14 05:55:10;;;;;;;2.78;2.00;;;;;;;23.23;57.56;100392.44;7383397;19;20363;-66
2022/08/14 05:58:03;;;;;;;4.85;3.15;;;;;;;23.22;57.39;100388.13;7385538;19;20027;-66
2022/08/14 06:00:34;;;;;;;3.10;2.00;;;;;;;23.20;57.85;100390.28;7383709;19;20017;-67
2022/08/14 06:03:08;;;;;;;3.88;1.42;;;;;;;23.20;57.90;100392.97;7391275;19;20069;-66
2022/08/14 06:05:36;;;;;;;5.57;1.90;;;;;;;23.19;57.56;100391.31;7385935;19;20015;-66
2022/08/14 06:08:13;;;;;;;6.35;1.95;;;;;;;23.21;57.34;100380.34;7391759;19;20550;-66
2022/08/14 06:11:04;;;;;;;3.67;1.52;;;;;;;23.21;57.94;100388.41;7388294;19;20029;-67
2022/08/14 06:13:38;;;;;;;7.68;1.90;;;;;;;23.22;57.94;100381.94;7391195;19;20014;-67
2022/08/14 06:16:14;;;;;;;4.38;1.60;;;;;;;23.23;57.56;100387.09;7389647;19;20014;-68
2022/08/14 06:18:46;;;;;;;7.55;2.28;;;;;;;23.24;57.71;100387.91;7391063;19;20417;-68
2022/08/14 06:21:14;;;;;;;2.58;1.55;;;;;;;23.26;57.63;100388.47;7389665;19;20081;-66
2022/08/14 06:23:43;;;;;;;4.60;1.98;;;;;;;23.29;57.60;100387.97;7391151;19;20522;-67
2022/08/14 06:26:14;;;;;;;3.22;2.20;;;;;;;23.29;57.42;100382.59;7388483;19;20498;-67
2022/08/14 06:28:45;;;;;;;6.05;1.60;;;;;;;23.29;57.16;100385.28;7389061;19;20021;-66
2022/08/14 06:31:12;;;;;;;3.50;1.35;;;;;;;23.31;57.84;100385.88;7389768;19;20017;-66
2022/08/14 06:33:39;;;;;;;3.10;1.65;;;;;;;23.33;58.28;100383.72;7389087;19;20018;-66
2022/08/14 06:36:26;;;;;;;3.88;1.45;;;;;;;23.34;57.44;100388.84;7389421;19;20561;-66
2022/08/14 06:38:54;;;;;;;7.10;1.92;;;;;;;23.37;58.29;100380.28;7389304;19;20024;-66
2022/08/14 06:41:22;;;;;;;2.35;1.65;;;;;;;23.42;58.39;100384.91;7389768;19;20033;-66
2022/08/14 06:44:09;;;;;;;3.22;1.60;;;;;;;23.46;58.35;100383.41;7387571;19;20014;-67
2022/08/14 06:46:36;;;;;;;3.60;1.30;;;;;;;23.49;57.82;100382.91;7387470;19;20490;-66
2022/08/14 06:49:03;;;;;;;3.35;1.40;;;;;;;23.52;58.19;100389.66;7386029;19;20021;-67
2022/08/14 06:51:31;;;;;;;2.70;1.40;;;;;;;23.55;58.48;100384.59;7388589;19;20007;-66
2022/08/14 06:54:11;;;;;;;5.40;1.60;;;;;;;23.58;58.28;100380.59;7389175;19;20018;-67
2022/08/14 06:56:38;;;;;;;3.72;1.60;;;;;;;23.61;59.00;100386.31;7390428;19;20541;-66
2022/08/14 06:59:12;;;;;;;4.43;1.40;;;;;;;23.65;58.92;100391.97;7389256;19;20010;-65
2022/08/14 07:07:17;;;;;;;3.55;1.30;;;;;;;23.72;58.21;100377.28;7388226;19;20014;-66
2022/08/14 07:09:44;;;;;;;4.90;1.40;;;;;;;23.75;58.29;100384.84;7388703;19;20407;-66
2022/08/14 07:12:16;;;;;;;4.82;1.25;;;;;;;23.79;58.25;100382.47;7388582;19;20768;-66
2022/08/14 07:15:05;;;;;;;2.30;1.20;;;;;;;23.81;58.51;100380.34;7388332;19;20025;-69
2022/08/14 07:17:32;;;;;;;2.25;1.30;;;;;;;23.84;58.33;100380.66;7387974;19;20025;-66
2022/08/14 07:20:00;;;;;;;5.00;1.40;;;;;;;23.88;58.10;100378.28;7384331;19;20035;-66
2022/08/14 07:22:26;;;;;;;2.63;1.25;;;;;;;23.91;57.94;100372.41;7388256;19;20493;-66
2022/08/14 07:25:13;;;;;;;2.83;1.50;;;;;;;23.96;57.57;100377.84;7388158;19;20522;-66
2022/08/14 07:27:41;;;;;;;3.33;1.35;;;;;;;23.99;57.85;100366.56;7386847;19;20017;-66
2022/08/14 07:30:09;;;;;;;3.30;1.05;;;;;;;24.02;57.65;100368.78;7389039;19;20759;-67
2022/08/14 07:32:56;;;;;;;7.53;1.10;;;;;;;24.01;57.67;100369.84;7387112;19;20011;-66
2022/08/14 07:35:23;;;;;;;2.25;1.13;;;;;;;24.04;57.69;100372.00;7385450;19;20367;-67
2022/08/14 07:38:04;;;;;;;2.92;1.42;;;;;;;24.09;58.11;100372.06;7387594;19;20018;-66
2022/08/14 07:40:34;;;;;;;4.63;1.40;;;;;;;24.16;57.65;100359.25;7385930;19;20074;-66
2022/08/14 07:43:01;;;;;;;3.35;1.30;;;;;;;24.24;57.05;100364.19;7387970;19;20482;-67
2022/08/14 07:45:40;;;;;;;2.97;1.10;;;;;;;24.32;57.53;100362.13;7386189;19;20055;-67
2022/08/14 07:48:08;;;;;;;3.70;1.40;;;;;;;24.35;57.13;100359.72;7386550;19;20481;-66
2022/08/14 07:50:42;;;;;;;2.47;0.82;;;;;;;24.42;57.17;100360.34;7383806;19;20372;-66
2022/08/14 07:53:13;;;;;;;3.00;1.10;;;;;;;24.49;57.20;100354.72;7386819;19;20024;-67
2022/08/14 07:55:41;;;;;;;3.33;1.20;;;;;;;24.55;56.24;100354.50;7386697;19;20478;-68
2022/08/14 07:58:09;;;;;;;3.08;1.40;;;;;;;24.60;56.82;100351.06;7386726;19;20295;-67
2022/08/14 08:00:56;;;;;;;3.15;1.15;;;;;;;24.66;56.47;100350.03;7387168;19;20014;-67
2022/08/14 08:03:28;;;;;;;6.15;1.48;;;;;;;24.72;55.39;100351.69;7384606;19;20434;-67
2022/08/14 08:05:56;;;;;;;4.97;1.13;;;;;;;24.76;55.93;100350.09;7379734;19;20031;-68
2022/08/14 08:08:24;;;;;;;3.70;1.20;;;;;;;24.78;54.99;100349.84;7386408;19;20036;-67
2022/08/14 08:10:59;;;;;;;6.88;1.00;;;;;;;24.81;54.36;100350.16;7384914;19;20010;-66
2022/08/14 08:13:32;;;;;;;3.08;1.38;;;;;;;24.86;54.62;100344.78;7384998;19;20012;-67
2022/08/14 08:16:06;;;;;;;3.40;1.10;;;;;;;24.92;54.28;100340.28;7385346;19;20504;-66
2022/08/14 08:18:34;;;;;;;4.55;1.00;;;;;;;24.98;53.89;100333.88;7386344;19;20014;-66
2022/08/14 08:21:01;;;;;;;3.83;1.10;;;;;;;25.03;54.19;100323.13;7383845;19;20544;-66
2022/08/14 08:23:32;;;;;;;4.63;1.42;;;;;;;25.10;53.79;100315.63;7385445;19;20870;-66
2022/08/14 08:26:09;;;;;;;4.57;1.00;;;;;;;25.14;54.12;100308.66;7385967;19;20356;-66
2022/08/14 08:28:36;;;;;;;3.97;1.15;;;;;;;25.20;53.91;100312.97;7384859;19;20317;-66
2022/08/14 08:31:05;;;;;;;5.50;1.27;;;;;;;25.25;53.49;100304.09;7383778;19;20018;-66
2022/08/14 08:33:34;;;;;;;3.55;1.20;;;;;;;25.30;52.95;100304.13;7386806;19;20464;-66
2022/08/14 08:36:07;;;;;;;2.40;1.13;;;;;;;25.34;52.48;100297.97;7382955;19;20007;-66
2022/08/14 08:38:46;;;;;;;3.60;0.80;;;;;;;25.39;52.47;100298.00;7385967;19;20018;-67
2022/08/14 08:41:45;;;;;;;5.07;1.30;;;;;;;25.50;51.31;100288.84;7387223;19;20019;-67
2022/08/14 08:44:18;;;;;;;6.32;0.95;;;;;;;25.54;51.30;100286.47;7383173;19;20070;-67
2022/08/14 08:47:04;;;;;;;4.82;1.20;;;;;;;25.60;50.22;100284.63;7383335;19;20074;-67
2022/08/14 08:49:51;;;;;;;2.30;1.20;;;;;;;25.64;50.60;100286.53;7380166;19;20021;-65
2022/08/14 08:52:28;;;;;;;3.28;0.73;;;;;;;25.71;50.69;100288.94;7384632;19;20066;-64
2022/08/14 08:54:58;;;;;;;3.80;1.15;;;;;;;25.74;50.29;100283.84;7384593;19;20394;-65
2022/08/14 08:57:32;;;;;;;3.40;1.20;;;;;;;25.78;50.25;100290.31;7384003;19;20015;-64
2022/08/14 09:00:01;;;;;;;3.03;0.90;;;;;;;25.83;50.17;100282.25;7384477;19;20085;-66
2022/08/14 09:02:35;;;;;;;1.95;1.10;;;;;;;25.89;49.42;100293.84;7385280;19;20045;-64
2022/08/14 09:05:03;;;;;;;4.40;1.00;;;;;;;25.96;49.26;100294.38;7382122;19;20026;-63
2022/08/14 09:07:30;;;;;;;4.30;1.17;;;;;;;26.02;49.12;100301.41;7384290;19;20031;-64
2022/08/14 09:09:57;;;;;;;3.90;1.10;;;;;;;26.10;48.70;100294.69;7384273;19;20718;-64
2022/08/14 09:12:30;;;;;;;7.93;0.98;;;;;;;26.17;48.14;100292.53;7384343;19;20014;-65
2022/08/14 09:15:03;;;;;;;;;;;;;;;26.22;48.29;100292.56;7386228;19;20011;-66
2022/08/14 09:17:38;;;;;;;1.55;1.00;;;;;;;26.25;48.58;100289.34;7383978;19;20002;-65
2022/08/14 09:20:07;;;;;;;2.30;1.00;;;;;;;26.36;48.21;100293.66;7380569;19;20021;-65
2022/08/14 09:22:40;;;;;;;3.13;0.98;;;;;;;26.45;47.93;100291.22;7384211;19;20022;-64
2022/08/14 09:25:08;;;;;;;1.83;0.90;;;;;;;26.58;46.59;100294.19;7382132;19;20456;-65
2022/08/14 09:27:36;;;;;;;2.28;1.10;;;;;;;26.71;47.01;100288.25;7382803;19;20015;-66
2022/08/14 09:30:08;;;;;;;3.83;1.10;;;;;;;26.83;46.23;100291.44;7384244;19;20946;-65
2022/08/14 09:33:00;;;;;;;3.67;1.13;;;;;;;26.94;46.61;100284.16;7383463;19;20014;-65
2022/08/14 09:36:15;;;;;;;1.45;0.90;;;;;;;27.05;46.22;100284.94;7381317;19;20018;-65
2022/08/14 09:39:00;;;;;;;3.63;0.98;;;;;;;27.15;46.83;100287.63;7381694;19;20018;-66
2022/08/14 09:41:46;;;;;;;1.58;0.90;;;;;;;27.26;46.45;100283.78;7384646;19;20018;-65
2022/08/14 09:44:55;;;;;;;5.25;1.35;;;;;;;27.35;45.61;100276.72;7383646;19;20014;-65
2022/08/14 09:47:47;;;;;;;1.75;1.17;;;;;;;27.45;44.52;100273.97;7381164;19;20011;-65
2022/08/14 09:50:21;;;;;;;5.78;1.00;;;;;;;27.55;43.79;100275.84;7380122;19;20018;-65
2022/08/14 09:53:03;;;;;;;1.65;0.90;;;;;;;27.65;43.31;100283.91;7385001;19;20015;-66
2022/08/14 09:55:34;;;;;;;2.97;0.80;;;;;;;27.73;42.73;100274.41;7383752;19;20010;-66
2022/08/14 09:58:16;;;;;;;4.20;0.98;;;;;;;27.84;42.06;100275.94;7382022;19;20017;-66
2022/08/14 10:01:00;;;;;;;3.58;1.00;;;;;;;27.97;42.07;100270.72;7384385;19;20014;-65
2022/08/14 10:03:36;;;;;;;4.30;0.85;;;;;;;28.07;41.71;100267.94;7381585;19;20006;-65
2022/08/14 10:06:12;;;;;;;4.32;0.90;;;;;;;28.17;41.08;100267.09;7379575;19;20014;-64
2022/08/14 10:08:46;;;;;;;5.25;0.77;;;;;;;28.25;40.55;100260.22;7382454;19;20017;-65
2022/08/14 10:11:32;;;;;;;2.33;0.70;;;;;;;28.36;40.60;100261.78;7382271;19;20031;-65
2022/08/14 10:14:18;;;;;;;2.60;0.70;;;;;;;28.44;40.40;100251.13;7384167;19;20761;-65
2022/08/14 10:17:03;;;;;;;1.15;0.70;;;;;;;28.54;40.08;100246.72;7382002;19;20484;-65
2022/08/14 10:19:34;;;;;;;1.85;0.68;;;;;;;28.63;40.95;100239.59;7379266;19;20081;-65
2022/08/14 10:22:09;;;;;;;2.03;1.35;;;;;;;28.69;39.82;100236.53;7382576;19;20037;-67
2022/08/14 10:24:56;;;;;;;3.95;0.80;;;;;;;28.82;38.73;100232.34;7383507;19;20021;-65
2022/08/14 10:27:26;;;;;;;2.08;0.90;;;;;;;28.89;38.50;100240.97;7379810;19;20014;-66
2022/08/14 10:30:03;;;;;;;5.40;0.73;;;;;;;28.92;39.70;100243.09;7384059;19;20415;-66
2022/08/14 10:32:42;;;;;;;2.88;1.00;;;;;;;28.93;39.85;100236.56;7382750;19;20010;-65
2022/08/14 10:35:18;;;;;;;6.00;0.98;;;;;;;28.95;39.98;100231.69;7380808;19;20077;-65
2022/08/14 10:37:50;;;;;;;2.28;0.70;;;;;;;28.96;39.15;100230.56;7379800;19;20098;-67
2022/08/14 10:40:31;;;;;;;4.15;0.73;;;;;;;28.99;38.76;100224.59;7382955;19;20011;-66
2022/08/14 10:43:24;;;;;;;1.25;0.80;;;;;;;29.02;38.31;100226.69;7383918;19;20029;-66
2022/08/14 10:45:57;;;;;;;1.65;0.80;;;;;;;29.04;39.32;100223.72;7381284;19;20400;-65
2022/08/14 10:49:01;;;;;;;5.40;0.80;;;;;;;29.07;39.83;100229.34;7388821;19;20015;-64
2022/08/14 10:51:33;;;;;;;4.00;0.93;;;;;;;29.11;39.20;100216.00;7389244;19;20398;-62
2022/08/14 10:54:09;;;;;;;20.98;1.55;;;;;;;29.14;39.38;100229.81;7388624;19;20038;-65
2022/08/14 10:56:58;;;;;;;10.50;1.10;;;;;;;29.18;39.83;100222.72;7390014;19;20026;-66
2022/08/14 10:59:25;;;;;;;2.40;0.73;;;;;;;29.24;39.72;100210.69;7388896;19;20010;-66
2022/08/14 11:01:58;;;;;;;3.35;0.70;;;;;;;29.28;39.48;100214.44;7389924;19;20486;-65
2022/08/14 11:04:27;;;;;;;2.88;0.70;;;;;;;29.33;38.63;100208.97;7387003;19;20018;-65
2022/08/14 11:06:57;;;;;;;3.13;0.60;;;;;;;29.41;38.19;100209.44;7388254;19;20035;-65
2022/08/14 11:09:24;;;;;;;3.22;0.65;;;;;;;29.45;38.04;100216.69;7387221;19;20015;-64
2022/08/14 11:11:58;;;;;;;1.25;0.57;;;;;;;29.49;37.50;100203.34;7389267;19;20037;-66
2022/08/14 11:14:59;;;;;;;2.85;0.70;;;;;;;29.58;36.66;100196.13;7388723;19;20017;-67
2022/08/14 11:17:30;;;;;;;2.92;0.60;;;;;;;29.63;37.31;100190.63;7387431;19;20037;-67
2022/08/14 11:20:00;;;;;;;3.53;0.70;;;;;;;29.64;36.55;100194.97;7385243;19;20018;-67
2022/08/14 11:22:30;;;;;;;1.90;0.60;;;;;;;29.66;35.76;100185.41;7388120;19;20114;-68
2022/08/14 11:25:19;;;;;;;1.55;0.70;;;;;;;29.67;35.20;100197.88;7388583;19;20003;-67
2022/08/14 11:27:47;;;;;;;2.63;0.60;;;;;;;29.72;35.39;100194.28;7386606;19;20018;-67
2022/08/14 11:30:21;;;;;;;1.23;0.75;;;;;;;29.76;34.01;100192.63;7388792;19;20024;-67
2022/08/14 11:33:08;;;;;;;2.25;0.63;;;;;;;29.77;33.90;100186.88;7388711;19;20018;-65
2022/08/14 11:35:37;;;;;;;2.00;0.60;;;;;;;29.79;33.63;100185.78;7385358;19;20023;-66
2022/08/14 11:38:13;;;;;;;0.93;0.50;;;;;;;29.82;33.36;100186.00;7386764;19;20023;-66
2022/08/14 11:40:46;;;;;;;1.63;0.70;;;;;;;29.86;32.47;100186.22;7384182;19;20026;-66
2022/08/14 11:43:15;;;;;;;1.23;0.50;;;;;;;29.91;32.46;100181.56;7385392;19;20123;-66
2022/08/14 11:45:47;;;;;;;1.00;0.50;;;;;;;29.98;31.85;100187.38;7388135;19;20474;-66
2022/08/14 11:48:24;;;;;;;1.75;0.50;;;;;;;30.05;30.91;100178.88;7384865;19;20042;-67
2022/08/14 11:51:22;;;;;;;1.38;0.60;;;;;;;30.02;30.88;100174.81;7386649;19;20014;-66
2022/08/14 11:53:52;;;;;;;2.40;0.30;;;;;;;30.04;30.76;100169.91;7386293;19;20453;-67
2022/08/14 11:56:20;;;;;;;3.45;0.45;;;;;;;30.07;28.95;100177.44;7388217;19;20550;-67
2022/08/14 11:58:53;;;;;;;2.22;0.40;;;;;;;30.09;28.38;100177.97;7385728;19;20796;-66
2022/08/14 12:01:27;;;;;;;1.58;0.40;;;;;;;30.15;28.73;100167.81;7387446;19;20093;-65
2022/08/14 12:03:57;;;;;;;2.28;0.38;;;;;;;30.16;29.49;100175.69;7385097;19;20715;-64
2022/08/14 12:06:27;;;;;;;4.00;0.40;;;;;;;30.16;29.48;100167.53;7385789;19;20018;-63
2022/08/14 12:09:05;;;;;;;4.57;0.63;;;;;;;30.21;29.83;100158.50;7387604;19;20018;-63
2022/08/14 12:11:43;;;;;;;1.88;0.50;;;;;;;30.26;29.69;100165.75;7387576;19;20029;-65
2022/08/14 12:14:17;;;;;;;1.20;0.40;;;;;;;30.27;29.15;100157.28;7385463;19;20341;-66
2022/08/14 12:17:06;;;;;;;1.80;0.40;;;;;;;30.32;29.29;100159.91;7386389;19;20051;-66
2022/08/14 12:20:00;;;;;;;0.80;0.40;;;;;;;30.34;29.17;100146.81;7383076;19;20022;-64
2022/08/14 12:22:39;;;;;;;1.75;0.50;;;;;;;30.38;28.85;100138.88;7383903;19;20014;-63